sensor_id;sensor_type;location;lat;lon;timestamp;temperature;humidity
19908;DHT22;10116;53.112;7.356;2022-08-07T00:00:42;28.10;99.90
19908;DHT22;10116;53.112;7.356;2022-08-07T00:03:09;28.10;99.90
19908;DHT22;10116;53.112;7.356;2022-08-07T00:05:35;28.10;99.90
19908;DHT22;10116;53.112;7.356;2022-08-07T00:08:02;28.10;99.90
19908;DHT22;10116;53.112;7.356;2022-08-07T00:10:29;28.10;99.90
19908;DHT22;10116;53.112;7.356;2022-08-07T00:12:55;28.10;99.90
19908;DHT22;10116;53.112;7.356;2022-08-07T00:15:21;28.10;99.90
19908;DHT22;10116;53.112;7.356;2022-08-07T00:17:47;28.10;99.90
19908;DHT22;10116;53.112;7.356;2022-08-07T00:20:12;28.10;99.90
19908;DHT22;10116;53.112;7.356;2022-08-07T00:22:38;28.00;99.90
19908;DHT22;10116;53.112;7.356;2022-08-07T00:25:06;28.00;99.90
19908;DHT22;10116;53.112;7.356;2022-08-07T00:27:31;28.00;99.90
19908;DHT22;10116;53.112;7.356;2022-08-07T00:29:57;28.00;99.90
19908;DHT22;10116;53.112;7.356;2022-08-07T00:32:23;28.00;99.90
19908;DHT22;10116;53.112;7.356;2022-08-07T00:34:48;28.00;99.90
19908;DHT22;10116;53.112;7.356;2022-08-07T00:37:15;28.00;99.90
19908;DHT22;10116;53.112;7.356;2022-08-07T00:39:41;28.00;99.90
19908;DHT22;10116;53.112;7.356;2022-08-07T00:42:06;28.00;99.90
19908;DHT22;10116;53.112;7.356;2022-08-07T00:44:33;28.00;99.90
19908;DHT22;10116;53.112;7.356;2022-08-07T00:47:00;28.00;99.90
19908;DHT22;10116;53.112;7.356;2022-08-07T00:49:26;28.00;99.90
19908;DHT22;10116;53.112;7.356;2022-08-07T00:51:52;28.00;99.90
19908;DHT22;10116;53.112;7.356;2022-08-07T00:54:17;28.00;99.90
19908;DHT22;10116;53.112;7.356;2022-08-07T00:56:43;28.00;99.90
19908;DHT22;10116;53.112;7.356;2022-08-07T00:59:09;28.00;99.90
19908;DHT22;10116;53.112;7.356;2022-08-07T01:01:34;27.90;99.90
19908;DHT22;10116;53.112;7.356;2022-08-07T01:04:04;27.90;99.90
19908;DHT22;10116;53.112;7.356;2022-08-07T01:06:31;27.90;99.90
19908;DHT22;10116;53.112;7.356;2022-08-07T01:08:58;27.90;99.90
19908;DHT22;10116;53.112;7.356;2022-08-07T01:11:24;27.90;99.90
19908;DHT22;10116;53.112;7.356;2022-08-07T01:13:50;28.00;99.90
19908;DHT22;10116;53.112;7.356;2022-08-07T01:16:16;27.90;99.90
19908;DHT22;10116;53.112;7.356;2022-08-07T01:18:42;27.90;99.90
19908;DHT22;10116;53.112;7.356;2022-08-07T01:21:25;27.90;99.90
19908;DHT22;10116;53.112;7.356;2022-08-07T01:23:53;27.90;99.90
19908;DHT22;10116;53.112;7.356;2022-08-07T01:26:20;27.80;99.90
19908;DHT22;10116;53.112;7.356;2022-08-07T01:28:48;27.80;99.90
19908;DHT22;10116;53.112;7.356;2022-08-07T01:31:19;27.90;99.90
19908;DHT22;10116;53.112;7.356;2022-08-07T01:33:46;27.80;99.90
19908;DHT22;10116;53.112;7.356;2022-08-07T01:36:12;27.80;99.90
19908;DHT22;10116;53.112;7.356;2022-08-07T01:38:39;27.80;99.90
19908;DHT22;10116;53.112;7.356;2022-08-07T01:41:05;27.80;99.90
19908;DHT22;10116;53.112;7.356;2022-08-07T01:43:32;27.80;99.90
19908;DHT22;10116;53.112;7.356;2022-08-07T01:45:58;27.80;99.90
19908;DHT22;10116;53.112;7.356;2022-08-07T01:48:25;27.80;99.90
19908;DHT22;10116;53.112;7.356;2022-08-07T01:51:12;27.80;99.90
19908;DHT22;10116;53.112;7.356;2022-08-07T01:53:43;27.80;99.90
19908;DHT22;10116;53.112;7.356;2022-08-07T01:56:16;27.70;99.90
19908;DHT22;10116;53.112;7.356;2022-08-07T01:58:49;27.70;99.90
19908;DHT22;10116;53.112;7.356;2022-08-07T02:01:23;27.70;99.90
19908;DHT22;10116;53.112;7.356;2022-08-07T02:04:10;27.70;99.90
19908;DHT22;10116;53.112;7.356;2022-08-07T02:06:40;27.70;99.90
19908;DHT22;10116;53.112;7.356;2022-08-07T02:09:09;27.70;99.90
19908;DHT22;10116;53.112;7.356;2022-08-07T02:11:38;27.70;99.90
19908;DHT22;10116;53.112;7.356;2022-08-07T02:14:06;27.70;99.90
19908;DHT22;10116;53.112;7.356;2022-08-07T02:16:33;27.70;99.90
19908;DHT22;10116;53.112;7.356;2022-08-07T02:19:05;27.70;99.90
19908;DHT22;10116;53.112;7.356;2022-08-07T02:21:33;27.70;99.90
19908;DHT22;10116;53.112;7.356;2022-08-07T02:24:00;27.70;99.90
19908;DHT22;10116;53.112;7.356;2022-08-07T02:26:27;27.60;99.90
19908;DHT22;10116;53.112;7.356;2022-08-07T02:28:54;27.70;99.90
19908;DHT22;10116;53.112;7.356;2022-08-07T02:31:22;27.70;99.90
19908;DHT22;10116;53.112;7.356;2022-08-07T02:33:48;27.70;99.90
19908;DHT22;10116;53.112;7.356;2022-08-07T02:36:15;27.60;99.90
19908;DHT22;10116;53.112;7.356;2022-08-07T02:38:41;27.60;99.90
19908;DHT22;10116;53.112;7.356;2022-08-07T02:41:08;27.60;99.90
19908;DHT22;10116;53.112;7.356;2022-08-07T02:43:35;27.70;99.90
19908;DHT22;10116;53.112;7.356;2022-08-07T02:46:04;27.70;99.90
19908;DHT22;10116;53.112;7.356;2022-08-07T02:48:30;27.70;99.90
19908;DHT22;10116;53.112;7.356;2022-08-07T02:50:56;27.70;99.90
19908;DHT22;10116;53.112;7.356;2022-08-07T02:53:28;27.60;99.90
19908;DHT22;10116;53.112;7.356;2022-08-07T02:55:56;27.60;99.90
19908;DHT22;10116;53.112;7.356;2022-08-07T02:58:24;27.60;99.90
19908;DHT22;10116;53.112;7.356;2022-08-07T03:00:54;27.60;99.90
19908;DHT22;10116;53.112;7.356;2022-08-07T03:03:20;27.60;99.90
19908;DHT22;10116;53.112;7.356;2022-08-07T03:05:49;27.60;99.90
19908;DHT22;10116;53.112;7.356;2022-08-07T03:08:15;27.60;99.90
19908;DHT22;10116;53.112;7.356;2022-08-07T03:10:42;27.50;99.90
19908;DHT22;10116;53.112;7.356;2022-08-07T03:13:10;27.50;99.90
19908;DHT22;10116;53.112;7.356;2022-08-07T03:15:37;27.50;99.90
19908;DHT22;10116;53.112;7.356;2022-08-07T03:18:03;27.50;99.90
19908;DHT22;10116;53.112;7.356;2022-08-07T03:20:29;27.60;99.90
19908;DHT22;10116;53.112;7.356;2022-08-07T03:22:56;27.60;99.90
19908;DHT22;10116;53.112;7.356;2022-08-07T03:25:24;27.60;99.90
19908;DHT22;10116;53.112;7.356;2022-08-07T03:27:50;27.60;99.90
19908;DHT22;10116;53.112;7.356;2022-08-07T03:30:17;27.60;99.90
19908;DHT22;10116;53.112;7.356;2022-08-07T03:32:45;27.70;99.90
19908;DHT22;10116;53.112;7.356;2022-08-07T03:35:13;27.70;99.90
19908;DHT22;10116;53.112;7.356;2022-08-07T03:37:42;27.80;99.90
19908;DHT22;10116;53.112;7.356;2022-08-07T03:40:09;27.90;99.90
19908;DHT22;10116;53.112;7.356;2022-08-07T03:42:35;27.90;99.90
19908;DHT22;10116;53.112;7.356;2022-08-07T03:45:03;27.90;99.90
19908;DHT22;10116;53.112;7.356;2022-08-07T03:47:29;27.90;99.90
19908;DHT22;10116;53.112;7.356;2022-08-07T03:49:56;27.90;99.90
19908;DHT22;10116;53.112;7.356;2022-08-07T03:52:27;28.00;99.90
19908;DHT22;10116;53.112;7.356;2022-08-07T03:54:56;28.00;99.90
19908;DHT22;10116;53.112;7.356;2022-08-07T03:57:24;27.90;99.90
19908;DHT22;10116;53.112;7.356;2022-08-07T03:59:50;27.90;99.90
19908;DHT22;10116;53.112;7.356;2022-08-07T04:02:17;27.90;99.90
19908;DHT22;10116;53.112;7.356;2022-08-07T04:04:42;27.90;99.90
19908;DHT22;10116;53.112;7.356;2022-08-07T04:07:08;27.90;99.90
19908;DHT22;10116;53.112;7.356;2022-08-07T04:09:35;27.90;99.90
19908;DHT22;10116;53.112;7.356;2022-08-07T04:12:01;27.90;99.90
19908;DHT22;10116;53.112;7.356;2022-08-07T04:14:27;27.90;99.90
19908;DHT22;10116;53.112;7.356;2022-08-07T04:16:53;27.90;99.90
19908;DHT22;10116;53.112;7.356;2022-08-07T04:19:19;27.90;99.90
19908;DHT22;10116;53.112;7.356;2022-08-07T04:21:45;27.90;99.90
19908;DHT22;10116;53.112;7.356;2022-08-07T04:24:11;27.90;99.90
19908;DHT22;10116;53.112;7.356;2022-08-07T04:26:38;27.90;99.90
19908;DHT22;10116;53.112;7.356;2022-08-07T04:29:07;27.90;99.90
19908;DHT22;10116;53.112;7.356;2022-08-07T04:31:38;27.90;99.90
19908;DHT22;10116;53.112;7.356;2022-08-07T04:34:06;27.90;99.90
19908;DHT22;10116;53.112;7.356;2022-08-07T04:36:32;27.90;99.90
19908;DHT22;10116;53.112;7.356;2022-08-07T04:38:59;27.90;99.90
19908;DHT22;10116;53.112;7.356;2022-08-07T04:41:24;27.90;99.90
19908;DHT22;10116;53.112;7.356;2022-08-07T04:43:50;27.90;99.90
19908;DHT22;10116;53.112;7.356;2022-08-07T04:57:01;27.90;99.90
19908;DHT22;10116;53.112;7.356;2022-08-07T05:02:08;27.90;99.90
19908;DHT22;10116;53.112;7.356;2022-08-07T05:07:31;28.00;99.90
19908;DHT22;10116;53.112;7.356;2022-08-07T05:10:22;28.10;99.90
19908;DHT22;10116;53.112;7.356;2022-08-07T05:12:53;28.20;99.90
19908;DHT22;10116;53.112;7.356;2022-08-07T05:15:29;28.30;99.90
19908;DHT22;10116;53.112;7.356;2022-08-07T05:17:58;28.30;99.90
19908;DHT22;10116;53.112;7.356;2022-08-07T05:20:31;28.40;99.90
19908;DHT22;10116;53.112;7.356;2022-08-07T05:23:03;28.50;99.90
19908;DHT22;10116;53.112;7.356;2022-08-07T05:25:30;28.50;99.90
19908;DHT22;10116;53.112;7.356;2022-08-07T05:27:57;28.60;99.90
19908;DHT22;10116;53.112;7.356;2022-08-07T05:30:24;28.70;99.90
19908;DHT22;10116;53.112;7.356;2022-08-07T05:32:50;28.70;99.90
19908;DHT22;10116;53.112;7.356;2022-08-07T05:35:17;28.70;99.90
19908;DHT22;10116;53.112;7.356;2022-08-07T05:37:44;28.70;99.90
19908;DHT22;10116;53.112;7.356;2022-08-07T05:40:12;28.80;99.90
19908;DHT22;10116;53.112;7.356;2022-08-07T05:42:38;28.80;99.90
19908;DHT22;10116;53.112;7.356;2022-08-07T05:45:04;28.80;99.90
19908;DHT22;10116;53.112;7.356;2022-08-07T05:47:31;28.90;99.90
19908;DHT22;10116;53.112;7.356;2022-08-07T05:49:59;28.90;99.90
19908;DHT22;10116;53.112;7.356;2022-08-07T05:52:25;28.90;99.90
19908;DHT22;10116;53.112;7.356;2022-08-07T05:54:51;28.90;99.90
19908;DHT22;10116;53.112;7.356;2022-08-07T05:57:16;28.90;99.90
19908;DHT22;10116;53.112;7.356;2022-08-07T05:59:43;29.00;99.90
19908;DHT22;10116;53.112;7.356;2022-08-07T06:02:13;29.00;99.90
19908;DHT22;10116;53.112;7.356;2022-08-07T06:04:45;29.00;99.90
19908;DHT22;10116;53.112;7.356;2022-08-07T06:07:13;29.00;99.90
19908;DHT22;10116;53.112;7.356;2022-08-07T06:09:40;29.00;99.90
19908;DHT22;10116;53.112;7.356;2022-08-07T06:12:06;29.00;99.90
19908;DHT22;10116;53.112;7.356;2022-08-07T06:14:32;29.00;99.90
19908;DHT22;10116;53.112;7.356;2022-08-07T06:16:58;28.90;99.90
19908;DHT22;10116;53.112;7.356;2022-08-07T06:19:25;28.90;99.90
19908;DHT22;10116;53.112;7.356;2022-08-07T06:21:52;28.90;99.90
19908;DHT22;10116;53.112;7.356;2022-08-07T06:24:18;28.90;99.90
19908;DHT22;10116;53.112;7.356;2022-08-07T06:26:44;28.90;99.90
19908;DHT22;10116;53.112;7.356;2022-08-07T06:29:10;28.90;99.90
19908;DHT22;10116;53.112;7.356;2022-08-07T06:31:35;28.90;99.90
19908;DHT22;10116;53.112;7.356;2022-08-07T06:34:01;28.80;99.90
19908;DHT22;10116;53.112;7.356;2022-08-07T06:36:27;28.80;99.90
19908;DHT22;10116;53.112;7.356;2022-08-07T06:38:53;28.80;99.90
19908;DHT22;10116;53.112;7.356;2022-08-07T06:41:26;28.80;99.90
19908;DHT22;10116;53.112;7.356;2022-08-07T06:43:53;28.90;99.90
19908;DHT22;10116;53.112;7.356;2022-08-07T06:46:20;28.90;99.90
19908;DHT22;10116;53.112;7.356;2022-08-07T06:48:46;29.00;99.90
19908;DHT22;10116;53.112;7.356;2022-08-07T06:51:16;29.10;99.90
19908;DHT22;10116;53.112;7.356;2022-08-07T06:53:43;29.10;99.90
19908;DHT22;10116;53.112;7.356;2022-08-07T06:56:11;29.10;99.90
19908;DHT22;10116;53.112;7.356;2022-08-07T06:58:38;29.10;99.90
19908;DHT22;10116;53.112;7.356;2022-08-07T07:01:10;29.10;99.90
19908;DHT22;10116;53.112;7.356;2022-08-07T07:03:38;29.10;99.90
19908;DHT22;10116;53.112;7.356;2022-08-07T07:06:07;29.10;99.90
19908;DHT22;10116;53.112;7.356;2022-08-07T07:08:33;29.10;99.90
19908;DHT22;10116;53.112;7.356;2022-08-07T07:11:03;29.10;99.90
19908;DHT22;10116;53.112;7.356;2022-08-07T07:13:36;29.10;99.90
19908;DHT22;10116;53.112;7.356;2022-08-07T07:16:08;29.10;99.90
19908;DHT22;10116;53.112;7.356;2022-08-07T07:18:42;29.10;99.90
19908;DHT22;10116;53.112;7.356;2022-08-07T07:21:21;29.10;99.90
19908;DHT22;10116;53.112;7.356;2022-08-07T07:23:48;29.00;99.90
19908;DHT22;10116;53.112;7.356;2022-08-07T07:26:17;29.00;99.90
19908;DHT22;10116;53.112;7.356;2022-08-07T07:29:04;29.00;99.90
19908;DHT22;10116;53.112;7.356;2022-08-07T07:31:34;29.00;99.90
19908;DHT22;10116;53.112;7.356;2022-08-07T07:34:08;29.00;99.90
19908;DHT22;10116;53.112;7.356;2022-08-07T07:36:37;29.00;99.90
19908;DHT22;10116;53.112;7.356;2022-08-07T07:39:03;29.00;99.90
19908;DHT22;10116;53.112;7.356;2022-08-07T07:41:32;29.00;99.90
19908;DHT22;10116;53.112;7.356;2022-08-07T07:44:00;28.90;99.90
19908;DHT22;10116;53.112;7.356;2022-08-07T07:46:30;28.90;99.90
19908;DHT22;10116;53.112;7.356;2022-08-07T07:48:57;28.90;99.90
19908;DHT22;10116;53.112;7.356;2022-08-07T07:51:25;28.90;99.90
19908;DHT22;10116;53.112;7.356;2022-08-07T07:53:52;28.90;99.90
19908;DHT22;10116;53.112;7.356;2022-08-07T07:56:22;28.90;99.90
19908;DHT22;10116;53.112;7.356;2022-08-07T07:58:49;28.90;99.90
19908;DHT22;10116;53.112;7.356;2022-08-07T08:01:16;28.90;99.90
19908;DHT22;10116;53.112;7.356;2022-08-07T08:03:42;28.90;99.90
19908;DHT22;10116;53.112;7.356;2022-08-07T08:06:08;28.90;99.90
19908;DHT22;10116;53.112;7.356;2022-08-07T08:08:35;28.80;99.90
19908;DHT22;10116;53.112;7.356;2022-08-07T08:11:04;28.80;99.90
19908;DHT22;10116;53.112;7.356;2022-08-07T08:13:31;28.80;99.90
19908;DHT22;10116;53.112;7.356;2022-08-07T08:16:00;28.90;99.90
19908;DHT22;10116;53.112;7.356;2022-08-07T08:18:27;28.80;99.90
19908;DHT22;10116;53.112;7.356;2022-08-07T08:20:54;28.80;99.90
19908;DHT22;10116;53.112;7.356;2022-08-07T08:23:21;28.80;99.90
19908;DHT22;10116;53.112;7.356;2022-08-07T08:26:07;28.80;99.90
19908;DHT22;10116;53.112;7.356;2022-08-07T08:28:53;28.70;99.90
19908;DHT22;10116;53.112;7.356;2022-08-07T08:31:28;28.70;99.90
19908;DHT22;10116;53.112;7.356;2022-08-07T08:33:55;28.70;99.90
19908;DHT22;10116;53.112;7.356;2022-08-07T08:36:25;28.70;99.90
19908;DHT22;10116;53.112;7.356;2022-08-07T08:38:53;28.70;99.90
19908;DHT22;10116;53.112;7.356;2022-08-07T08:41:52;28.60;99.90
19908;DHT22;10116;53.112;7.356;2022-08-07T08:50:14;28.60;99.90
19908;DHT22;10116;53.112;7.356;2022-08-07T08:52:50;28.60;99.90
19908;DHT22;10116;53.112;7.356;2022-08-07T08:56:19;28.60;99.90
19908;DHT22;10116;53.112;7.356;2022-08-07T08:58:26;28.50;99.90
19908;DHT22;10116;53.112;7.356;2022-08-07T09:00:59;28.50;99.90
19908;DHT22;10116;53.112;7.356;2022-08-07T09:03:34;28.50;99.90
19908;DHT22;10116;53.112;7.356;2022-08-07T09:06:15;28.40;99.90
19908;DHT22;10116;53.112;7.356;2022-08-07T09:09:05;28.40;99.90
19908;DHT22;10116;53.112;7.356;2022-08-07T09:11:46;28.40;99.90
19908;DHT22;10116;53.112;7.356;2022-08-07T09:14:19;28.40;99.90
19908;DHT22;10116;53.112;7.356;2022-08-07T09:19:58;28.30;99.90
19908;DHT22;10116;53.112;7.356;2022-08-07T09:25:20;28.30;99.90
19908;DHT22;10116;53.112;7.356;2022-08-07T09:27:54;28.30;99.90
19908;DHT22;10116;53.112;7.356;2022-08-07T09:30:23;28.30;99.90
19908;DHT22;10116;53.112;7.356;2022-08-07T09:39:10;28.30;99.90
19908;DHT22;10116;53.112;7.356;2022-08-07T09:41:45;28.30;99.90
19908;DHT22;10116;53.112;7.356;2022-08-07T09:47:11;28.20;99.90
19908;DHT22;10116;53.112;7.356;2022-08-07T09:49:54;28.30;99.90
19908;DHT22;10116;53.112;7.356;2022-08-07T09:52:41;28.30;99.90
19908;DHT22;10116;53.112;7.356;2022-08-07T10:00:14;28.30;99.90
19908;DHT22;10116;53.112;7.356;2022-08-07T10:03:06;28.30;99.90
19908;DHT22;10116;53.112;7.356;2022-08-07T10:05:39;28.40;99.90
19908;DHT22;10116;53.112;7.356;2022-08-07T10:15:21;28.70;99.90
19908;DHT22;10116;53.112;7.356;2022-08-07T10:39:25;29.00;99.90
19908;DHT22;10116;53.112;7.356;2022-08-07T10:44:32;29.00;99.90
19908;DHT22;10116;53.112;7.356;2022-08-07T10:49:55;29.00;99.90
19908;DHT22;10116;53.112;7.356;2022-08-07T10:55:27;29.00;99.90
19908;DHT22;10116;53.112;7.356;2022-08-07T11:01:03;29.00;99.90
19908;DHT22;10116;53.112;7.356;2022-08-07T11:03:41;29.00;99.90
19908;DHT22;10116;53.112;7.356;2022-08-07T11:06:15;29.00;99.90
19908;DHT22;10116;53.112;7.356;2022-08-07T11:09:02;29.10;99.90
19908;DHT22;10116;53.112;7.356;2022-08-07T11:11:36;29.10;99.90
19908;DHT22;10116;53.112;7.356;2022-08-07T11:14:12;29.10;99.90
19908;DHT22;10116;53.112;7.356;2022-08-07T11:16:47;29.10;99.90
19908;DHT22;10116;53.112;7.356;2022-08-07T11:19:23;29.10;99.90
19908;DHT22;10116;53.112;7.356;2022-08-07T11:22:11;29.10;99.90
19908;DHT22;10116;53.112;7.356;2022-08-07T11:24:59;29.10;99.90
19908;DHT22;10116;53.112;7.356;2022-08-07T11:30:09;29.10;99.90
19908;DHT22;10116;53.112;7.356;2022-08-07T11:32:39;29.10;99.90
19908;DHT22;10116;53.112;7.356;2022-08-07T11:35:29;29.10;99.90
19908;DHT22;10116;53.112;7.356;2022-08-07T11:38:09;29.10;99.90
19908;DHT22;10116;53.112;7.356;2022-08-07T11:40:56;29.10;99.90
19908;DHT22;10116;53.112;7.356;2022-08-07T11:43:28;29.20;99.90
19908;DHT22;10116;53.112;7.356;2022-08-07T11:54:21;29.30;99.90
19908;DHT22;10116;53.112;7.356;2022-08-07T12:08:24;29.40;99.90
19908;DHT22;10116;53.112;7.356;2022-08-07T12:10:58;29.40;99.90
19908;DHT22;10116;53.112;7.356;2022-08-07T12:16:32;29.40;99.90
19908;DHT22;10116;53.112;7.356;2022-08-07T12:24:35;29.40;99.90
19908;DHT22;10116;53.112;7.356;2022-08-07T12:27:14;29.50;99.90
19908;DHT22;10116;53.112;7.356;2022-08-07T12:29:41;29.40;99.90
19908;DHT22;10116;53.112;7.356;2022-08-07T12:32:19;29.40;99.90
19908;DHT22;10116;53.112;7.356;2022-08-07T12:34:47;29.50;99.90
19908;DHT22;10116;53.112;7.356;2022-08-07T12:37:15;29.40;99.90
19908;DHT22;10116;53.112;7.356;2022-08-07T12:39:44;29.40;99.90
19908;DHT22;10116;53.112;7.356;2022-08-07T12:42:11;29.40;99.90
19908;DHT22;10116;53.112;7.356;2022-08-07T12:44:40;29.40;99.90
19908;DHT22;10116;53.112;7.356;2022-08-07T12:50:02;29.40;99.90
19908;DHT22;10116;53.112;7.356;2022-08-07T12:55:39;29.40;99.90
19908;DHT22;10116;53.112;7.356;2022-08-07T12:58:07;29.30;99.90
19908;DHT22;10116;53.112;7.356;2022-08-07T13:00:59;29.30;99.90
19908;DHT22;10116;53.112;7.356;2022-08-07T13:06:17;29.30;99.90
19908;DHT22;10116;53.112;7.356;2022-08-07T13:11:56;29.30;99.90
19908;DHT22;10116;53.112;7.356;2022-08-07T13:20:46;29.30;99.90
19908;DHT22;10116;53.112;7.356;2022-08-07T13:23:19;29.30;99.90
19908;DHT22;10116;53.112;7.356;2022-08-07T13:26:00;29.30;99.90
19908;DHT22;10116;53.112;7.356;2022-08-07T13:28:33;29.40;99.90
19908;DHT22;10116;53.112;7.356;2022-08-07T13:31:12;29.40;99.90
19908;DHT22;10116;53.112;7.356;2022-08-07T13:36:25;29.40;99.90
19908;DHT22;10116;53.112;7.356;2022-08-07T13:39:09;29.40;99.90
19908;DHT22;10116;53.112;7.356;2022-08-07T13:41:50;29.40;99.90
19908;DHT22;10116;53.112;7.356;2022-08-07T13:44:21;29.50;99.90
19908;DHT22;10116;53.112;7.356;2022-08-07T13:46:51;29.50;99.90
19908;DHT22;10116;53.112;7.356;2022-08-07T13:49:21;29.50;99.90
19908;DHT22;10116;53.112;7.356;2022-08-07T13:51:48;29.50;99.90
19908;DHT22;10116;53.112;7.356;2022-08-07T13:54:15;29.50;99.90
19908;DHT22;10116;53.112;7.356;2022-08-07T13:56:42;29.50;99.90
19908;DHT22;10116;53.112;7.356;2022-08-07T13:59:18;29.50;99.90
19908;DHT22;10116;53.112;7.356;2022-08-07T14:01:55;29.50;99.90
19908;DHT22;10116;53.112;7.356;2022-08-07T14:04:24;29.50;99.90
19908;DHT22;10116;53.112;7.356;2022-08-07T14:06:51;29.40;99.90
19908;DHT22;10116;53.112;7.356;2022-08-07T14:09:23;29.40;99.90
19908;DHT22;10116;53.112;7.356;2022-08-07T14:11:55;29.40;99.90
19908;DHT22;10116;53.112;7.356;2022-08-07T14:14:29;29.40;99.90
19908;DHT22;10116;53.112;7.356;2022-08-07T14:16:59;29.40;99.90
19908;DHT22;10116;53.112;7.356;2022-08-07T14:19:46;29.40;99.90
19908;DHT22;10116;53.112;7.356;2022-08-07T14:22:17;29.30;99.90
19908;DHT22;10116;53.112;7.356;2022-08-07T14:24:50;29.30;99.90
19908;DHT22;10116;53.112;7.356;2022-08-07T14:27:23;29.30;99.90
19908;DHT22;10116;53.112;7.356;2022-08-07T14:29:54;29.30;99.90
19908;DHT22;10116;53.112;7.356;2022-08-07T14:32:20;29.30;99.90
19908;DHT22;10116;53.112;7.356;2022-08-07T14:34:47;29.40;99.90
19908;DHT22;10116;53.112;7.356;2022-08-07T14:37:16;29.40;99.90
19908;DHT22;10116;53.112;7.356;2022-08-07T14:39:44;29.50;99.90
19908;DHT22;10116;53.112;7.356;2022-08-07T14:42:12;29.50;99.90
19908;DHT22;10116;53.112;7.356;2022-08-07T14:44:45;29.50;99.90
19908;DHT22;10116;53.112;7.356;2022-08-07T14:47:18;29.50;99.90
19908;DHT22;10116;53.112;7.356;2022-08-07T14:49:44;29.50;99.90
19908;DHT22;10116;53.112;7.356;2022-08-07T14:52:12;29.60;99.90
19908;DHT22;10116;53.112;7.356;2022-08-07T14:54:39;29.60;99.90
19908;DHT22;10116;53.112;7.356;2022-08-07T14:57:08;29.60;99.90
19908;DHT22;10116;53.112;7.356;2022-08-07T14:59:35;29.60;99.90
19908;DHT22;10116;53.112;7.356;2022-08-07T15:02:15;29.60;99.90
19908;DHT22;10116;53.112;7.356;2022-08-07T15:04:43;29.60;99.90
19908;DHT22;10116;53.112;7.356;2022-08-07T15:07:15;29.60;99.90
19908;DHT22;10116;53.112;7.356;2022-08-07T15:09:41;29.60;99.90
19908;DHT22;10116;53.112;7.356;2022-08-07T15:12:11;29.60;99.90
19908;DHT22;10116;53.112;7.356;2022-08-07T15:14:51;29.60;99.90
19908;DHT22;10116;53.112;7.356;2022-08-07T15:17:23;29.60;99.90
19908;DHT22;10116;53.112;7.356;2022-08-07T15:19:57;29.60;99.90
19908;DHT22;10116;53.112;7.356;2022-08-07T15:22:28;29.60;99.90
19908;DHT22;10116;53.112;7.356;2022-08-07T15:24:55;29.60;99.90
19908;DHT22;10116;53.112;7.356;2022-08-07T15:27:23;29.50;99.90
19908;DHT22;10116;53.112;7.356;2022-08-07T15:29:52;29.50;99.90
19908;DHT22;10116;53.112;7.356;2022-08-07T15:32:20;29.50;99.90
19908;DHT22;10116;53.112;7.356;2022-08-07T15:34:52;29.50;99.90
19908;DHT22;10116;53.112;7.356;2022-08-07T15:37:30;29.50;99.90
19908;DHT22;10116;53.112;7.356;2022-08-07T15:39:58;29.50;99.90
19908;DHT22;10116;53.112;7.356;2022-08-07T15:45:05;29.50;99.90
19908;DHT22;10116;53.112;7.356;2022-08-07T15:47:37;29.50;99.90
19908;DHT22;10116;53.112;7.356;2022-08-07T15:50:09;29.50;99.90
19908;DHT22;10116;53.112;7.356;2022-08-07T15:52:36;29.40;99.90
19908;DHT22;10116;53.112;7.356;2022-08-07T15:55:09;29.40;99.90
19908;DHT22;10116;53.112;7.356;2022-08-07T15:57:35;29.50;99.90
19908;DHT22;10116;53.112;7.356;2022-08-07T16:00:03;29.50;99.90
19908;DHT22;10116;53.112;7.356;2022-08-07T16:02:40;29.40;99.90
19908;DHT22;10116;53.112;7.356;2022-08-07T16:05:09;29.40;99.90
19908;DHT22;10116;53.112;7.356;2022-08-07T16:07:46;29.40;99.90
19908;DHT22;10116;53.112;7.356;2022-08-07T16:10:17;29.40;99.90
19908;DHT22;10116;53.112;7.356;2022-08-07T16:18:59;29.30;99.90
19908;DHT22;10116;53.112;7.356;2022-08-07T16:21:16;29.40;99.90
19908;DHT22;10116;53.112;7.356;2022-08-07T16:27:08;29.50;99.90
19908;DHT22;10116;53.112;7.356;2022-08-07T16:32:24;29.50;99.90
19908;DHT22;10116;53.112;7.356;2022-08-07T16:34:56;29.40;99.90
19908;DHT22;10116;53.112;7.356;2022-08-07T16:40:21;29.50;99.90
19908;DHT22;10116;53.112;7.356;2022-08-07T16:51:32;29.50;99.90
19908;DHT22;10116;53.112;7.356;2022-08-07T16:57:28;29.40;99.90
19908;DHT22;10116;53.112;7.356;2022-08-07T17:00:06;29.40;99.90
19908;DHT22;10116;53.112;7.356;2022-08-07T17:08:46;29.40;99.90
19908;DHT22;10116;53.112;7.356;2022-08-07T17:11:21;29.40;99.90
19908;DHT22;10116;53.112;7.356;2022-08-07T17:14:10;29.40;99.90
19908;DHT22;10116;53.112;7.356;2022-08-07T17:16:51;29.30;99.90
19908;DHT22;10116;53.112;7.356;2022-08-07T17:19:47;29.30;99.90
19908;DHT22;10116;53.112;7.356;2022-08-07T17:22:33;29.30;99.90
19908;DHT22;10116;53.112;7.356;2022-08-07T17:27:59;29.30;99.90
19908;DHT22;10116;53.112;7.356;2022-08-07T17:30:52;29.30;99.90
19908;DHT22;10116;53.112;7.356;2022-08-07T17:33:44;29.30;99.90
19908;DHT22;10116;53.112;7.356;2022-08-07T17:36:17;29.20;99.90
19908;DHT22;10116;53.112;7.356;2022-08-07T17:39:05;29.20;99.90
19908;DHT22;10116;53.112;7.356;2022-08-07T17:41:47;29.20;99.90
19908;DHT22;10116;53.112;7.356;2022-08-07T17:44:24;29.20;99.90
19908;DHT22;10116;53.112;7.356;2022-08-07T17:47:02;29.30;99.90
19908;DHT22;10116;53.112;7.356;2022-08-07T17:49:40;29.30;99.90
19908;DHT22;10116;53.112;7.356;2022-08-07T17:52:34;29.30;99.90
19908;DHT22;10116;53.112;7.356;2022-08-07T17:55:07;29.30;99.90
19908;DHT22;10116;53.112;7.356;2022-08-07T17:58:07;29.20;99.90
19908;DHT22;10116;53.112;7.356;2022-08-07T18:00:34;29.20;99.90
19908;DHT22;10116;53.112;7.356;2022-08-07T18:03:51;29.20;99.90
19908;DHT22;10116;53.112;7.356;2022-08-07T18:06:09;29.30;99.90
19908;DHT22;10116;53.112;7.356;2022-08-07T18:08:43;29.30;99.90
19908;DHT22;10116;53.112;7.356;2022-08-07T18:18:55;29.30;99.90
19908;DHT22;10116;53.112;7.356;2022-08-07T18:21:27;29.20;99.90
19908;DHT22;10116;53.112;7.356;2022-08-07T18:24:19;29.20;99.90
19908;DHT22;10116;53.112;7.356;2022-08-07T18:29:18;29.20;99.90
19908;DHT22;10116;53.112;7.356;2022-08-07T18:32:29;29.20;99.90
19908;DHT22;10116;53.112;7.356;2022-08-07T18:37:52;29.20;99.90
19908;DHT22;10116;53.112;7.356;2022-08-07T18:43:09;29.10;99.90
19908;DHT22;10116;53.112;7.356;2022-08-07T18:45:59;29.10;99.90
19908;DHT22;10116;53.112;7.356;2022-08-07T18:48:46;29.10;99.90
19908;DHT22;10116;53.112;7.356;2022-08-07T18:51:26;29.10;99.90
19908;DHT22;10116;53.112;7.356;2022-08-07T18:54:02;29.10;99.90
19908;DHT22;10116;53.112;7.356;2022-08-07T18:56:50;29.10;99.90
19908;DHT22;10116;53.112;7.356;2022-08-07T19:02:19;29.00;99.90
19908;DHT22;10116;53.112;7.356;2022-08-07T19:05:02;29.00;99.90
19908;DHT22;10116;53.112;7.356;2022-08-07T19:07:33;29.00;99.90